sensor_id;sensor_type;location;lat;lon;timestamp;temperature;humidity
69054;DHT22;56125;52.242;4.756;2023-05-23T00:04:40;21.30;56.20
69054;DHT22;56125;52.242;4.756;2023-05-23T00:09:42;21.30;57.20
69054;DHT22;56125;52.242;4.756;2023-05-23T00:14:43;21.30;56.20
69054;DHT22;56125;52.242;4.756;2023-05-23T00:19:45;21.30;56.20
69054;DHT22;56125;52.242;4.756;2023-05-23T00:24:47;21.30;56.20
69054;DHT22;56125;52.242;4.756;2023-05-23T00:29:48;21.30;56.10
69054;DHT22;56125;52.242;4.756;2023-05-23T00:34:49;20.70;55.80
69054;DHT22;56125;52.242;4.756;2023-05-23T00:39:50;21.30;56.10
69054;DHT22;56125;52.242;4.756;2023-05-23T00:44:51;21.20;56.00
69054;DHT22;56125;52.242;4.756;2023-05-23T00:49:52;21.30;56.10
69054;DHT22;56125;52.242;4.756;2023-05-23T00:54:53;21.20;56.10
69054;DHT22;56125;52.242;4.756;2023-05-23T00:59:54;21.20;56.00
69054;DHT22;56125;52.242;4.756;2023-05-23T01:04:55;21.20;56.00
69054;DHT22;56125;52.242;4.756;2023-05-23T01:09:56;21.20;55.90
69054;DHT22;56125;52.242;4.756;2023-05-23T01:15:11;21.20;56.00
69054;DHT22;56125;52.242;4.756;2023-05-23T01:20:21;21.20;55.80
69054;DHT22;56125;52.242;4.756;2023-05-23T01:30:40;21.10;55.80
69054;DHT22;56125;52.242;4.756;2023-05-23T01:35:42;21.10;55.80
69054;DHT22;56125;52.242;4.756;2023-05-23T01:40:44;21.10;55.80
69054;DHT22;56125;52.242;4.756;2023-05-23T01:45:45;21.10;55.70
69054;DHT22;56125;52.242;4.756;2023-05-23T01:50:46;21.10;55.70
69054;DHT22;56125;52.242;4.756;2023-05-23T01:55:48;20.90;55.50
69054;DHT22;56125;52.242;4.756;2023-05-23T02:00:49;21.50;55.80
69054;DHT22;56125;52.242;4.756;2023-05-23T02:05:50;21.10;55.60
69054;DHT22;56125;52.242;4.756;2023-05-23T02:10:51;21.10;55.50
69054;DHT22;56125;52.242;4.756;2023-05-23T02:15:52;21.00;55.50
69054;DHT22;56125;52.242;4.756;2023-05-23T02:20:54;21.10;55.50
69054;DHT22;56125;52.242;4.756;2023-05-23T02:25:56;20.80;55.40
69054;DHT22;56125;52.242;4.756;2023-05-23T02:30:57;21.10;55.50
69054;DHT22;56125;52.242;4.756;2023-05-23T02:35:58;21.10;55.50
69054;DHT22;56125;52.242;4.756;2023-05-23T02:40:59;21.00;55.30
69054;DHT22;56125;52.242;4.756;2023-05-23T02:46:00;21.00;55.20
69054;DHT22;56125;52.242;4.756;2023-05-23T02:51:01;21.00;55.20
69054;DHT22;56125;52.242;4.756;2023-05-23T02:56:02;21.00;55.20
69054;DHT22;56125;52.242;4.756;2023-05-23T03:01:03;21.00;55.00
69054;DHT22;56125;52.242;4.756;2023-05-23T03:06:04;21.00;55.00
69054;DHT22;56125;52.242;4.756;2023-05-23T03:11:06;20.90;55.00
69054;DHT22;56125;52.242;4.756;2023-05-23T03:16:07;21.00;55.00
69054;DHT22;56125;52.242;4.756;2023-05-23T03:21:08;21.00;54.90
69054;DHT22;56125;52.242;4.756;2023-05-23T03:26:09;21.00;54.80
69054;DHT22;56125;52.242;4.756;2023-05-23T03:31:10;21.00;54.80
69054;DHT22;56125;52.242;4.756;2023-05-23T03:36:11;20.90;54.80
69054;DHT22;56125;52.242;4.756;2023-05-23T03:41:12;20.90;54.90
69054;DHT22;56125;52.242;4.756;2023-05-23T03:46:13;20.90;54.60
69054;DHT22;56125;52.242;4.756;2023-05-23T03:51:14;20.90;54.60
69054;DHT22;56125;52.242;4.756;2023-05-23T03:56:15;20.90;54.60
69054;DHT22;56125;52.242;4.756;2023-05-23T04:01:16;20.90;54.50
69054;DHT22;56125;52.242;4.756;2023-05-23T04:06:17;20.90;54.40
69054;DHT22;56125;52.242;4.756;2023-05-23T04:11:20;20.90;54.30
69054;DHT22;56125;52.242;4.756;2023-05-23T04:16:22;20.90;54.30
69054;DHT22;56125;52.242;4.756;2023-05-23T04:21:23;20.90;54.10
69054;DHT22;56125;52.242;4.756;2023-05-23T04:26:24;21.10;54.50
69054;DHT22;56125;52.242;4.756;2023-05-23T04:31:25;20.90;54.00
69054;DHT22;56125;52.242;4.756;2023-05-23T04:36:26;20.90;53.90
69054;DHT22;56125;52.242;4.756;2023-05-23T04:41:27;20.80;53.70
69054;DHT22;56125;52.242;4.756;2023-05-23T04:46:28;20.80;53.70
69054;DHT22;56125;52.242;4.756;2023-05-23T04:51:29;20.80;53.90
69054;DHT22;56125;52.242;4.756;2023-05-23T04:56:30;20.80;53.50
69054;DHT22;56125;52.242;4.756;2023-05-23T05:01:31;20.80;53.60
69054;DHT22;56125;52.242;4.756;2023-05-23T05:06:32;20.80;53.50
69054;DHT22;56125;52.242;4.756;2023-05-23T05:11:33;20.80;53.50
69054;DHT22;56125;52.242;4.756;2023-05-23T05:16:34;20.80;53.40
69054;DHT22;56125;52.242;4.756;2023-05-23T05:21:36;20.80;53.20
69054;DHT22;56125;52.242;4.756;2023-05-23T05:26:37;20.80;53.30
69054;DHT22;56125;52.242;4.756;2023-05-23T05:31:38;20.80;53.10
69054;DHT22;56125;52.242;4.756;2023-05-23T05:36:40;20.80;53.00
69054;DHT22;56125;52.242;4.756;2023-05-23T05:41:45;20.80;53.10
69054;DHT22;56125;52.242;4.756;2023-05-23T05:46:46;20.80;52.90
69054;DHT22;56125;52.242;4.756;2023-05-23T05:51:48;20.80;53.20
69054;DHT22;56125;52.242;4.756;2023-05-23T05:56:49;20.80;53.20
69054;DHT22;56125;52.242;4.756;2023-05-23T06:01:51;20.80;53.50
69054;DHT22;56125;52.242;4.756;2023-05-23T06:06:52;20.80;53.30
69054;DHT22;56125;52.242;4.756;2023-05-23T06:11:53;20.80;53.50
69054;DHT22;56125;52.242;4.756;2023-05-23T06:16:54;21.10;53.70
69054;DHT22;56125;52.242;4.756;2023-05-23T06:21:55;20.70;53.40
69054;DHT22;56125;52.242;4.756;2023-05-23T06:26:56;20.70;53.50
69054;DHT22;56125;52.242;4.756;2023-05-23T06:31:57;20.70;53.40
69054;DHT22;56125;52.242;4.756;2023-05-23T06:36:58;20.80;53.50
69054;DHT22;56125;52.242;4.756;2023-05-23T06:41:59;20.80;53.30
69054;DHT22;56125;52.242;4.756;2023-05-23T06:47:01;20.80;53.30
69054;DHT22;56125;52.242;4.756;2023-05-23T06:52:02;20.80;53.30
69054;DHT22;56125;52.242;4.756;2023-05-23T06:57:03;20.80;53.00
69054;DHT22;56125;52.242;4.756;2023-05-23T07:02:04;20.80;52.80
69054;DHT22;56125;52.242;4.756;2023-05-23T07:07:05;20.80;52.80
69054;DHT22;56125;52.242;4.756;2023-05-23T07:12:06;20.90;52.60
69054;DHT22;56125;52.242;4.756;2023-05-23T07:17:07;20.90;53.00
69054;DHT22;56125;52.242;4.756;2023-05-23T07:22:08;20.90;52.20
69054;DHT22;56125;52.242;4.756;2023-05-23T07:27:09;21.00;51.90
69054;DHT22;56125;52.242;4.756;2023-05-23T07:32:10;21.00;51.70
69054;DHT22;56125;52.242;4.756;2023-05-23T07:37:11;21.00;51.60
69054;DHT22;56125;52.242;4.756;2023-05-23T07:42:12;21.10;51.50
69054;DHT22;56125;52.242;4.756;2023-05-23T07:47:13;21.10;51.40
69054;DHT22;56125;52.242;4.756;2023-05-23T07:52:14;21.10;51.10
69054;DHT22;56125;52.242;4.756;2023-05-23T07:57:15;21.20;50.90
69054;DHT22;56125;52.242;4.756;2023-05-23T08:02:17;21.20;50.90
69054;DHT22;56125;52.242;4.756;2023-05-23T08:07:18;21.30;50.40
69054;DHT22;56125;52.242;4.756;2023-05-23T08:12:19;21.30;50.20
69054;DHT22;56125;52.242;4.756;2023-05-23T08:17:20;21.30;50.20
69054;DHT22;56125;52.242;4.756;2023-05-23T08:22:21;21.40;50.00
69054;DHT22;56125;52.242;4.756;2023-05-23T08:27:22;21.40;50.10
69054;DHT22;56125;52.242;4.756;2023-05-23T08:32:23;21.40;49.80
69054;DHT22;56125;52.242;4.756;2023-05-23T08:37:24;21.40;49.80
69054;DHT22;56125;52.242;4.756;2023-05-23T08:42:25;21.40;49.80
69054;DHT22;56125;52.242;4.756;2023-05-23T08:47:27;21.40;49.90
69054;DHT22;56125;52.242;4.756;2023-05-23T08:52:29;21.20;49.50
69054;DHT22;56125;52.242;4.756;2023-05-23T08:57:31;21.40;49.70
69054;DHT22;56125;52.242;4.756;2023-05-23T09:02:33;21.40;49.50
69054;DHT22;56125;52.242;4.756;2023-05-23T09:07:35;21.40;49.30
69054;DHT22;56125;52.242;4.756;2023-05-23T09:12:37;21.40;49.30
69054;DHT22;56125;52.242;4.756;2023-05-23T09:17:38;21.90;49.50
69054;DHT22;56125;52.242;4.756;2023-05-23T09:22:40;21.40;49.20
69054;DHT22;56125;52.242;4.756;2023-05-23T09:27:41;21.40;49.00
69054;DHT22;56125;52.242;4.756;2023-05-23T09:32:56;21.40;49.20
69054;DHT22;56125;52.242;4.756;2023-05-23T09:37:58;21.30;48.90
69054;DHT22;56125;52.242;4.756;2023-05-23T09:43:03;21.40;49.00
69054;DHT22;56125;52.242;4.756;2023-05-23T09:48:11;21.40;48.90
69054;DHT22;56125;52.242;4.756;2023-05-23T09:53:12;21.40;48.90
69054;DHT22;56125;52.242;4.756;2023-05-23T09:58:13;21.40;48.70
69054;DHT22;56125;52.242;4.756;2023-05-23T10:03:15;21.40;48.70
69054;DHT22;56125;52.242;4.756;2023-05-23T10:08:36;21.40;48.70
69054;DHT22;56125;52.242;4.756;2023-05-23T10:13:46;20.70;48.20
69054;DHT22;56125;52.242;4.756;2023-05-23T10:18:54;21.40;48.50
69054;DHT22;56125;52.242;4.756;2023-05-23T10:23:58;21.40;48.60
69054;DHT22;56125;52.242;4.756;2023-05-23T10:29:00;21.40;48.50
69054;DHT22;56125;52.242;4.756;2023-05-23T10:34:13;21.40;48.50
69054;DHT22;56125;52.242;4.756;2023-05-23T10:39:32;21.40;48.60
69054;DHT22;56125;52.242;4.756;2023-05-23T10:44:36;21.40;48.40
69054;DHT22;56125;52.242;4.756;2023-05-23T10:49:43;21.40;48.90
69054;DHT22;56125;52.242;4.756;2023-05-23T10:54:48;21.40;50.10
69054;DHT22;56125;52.242;4.756;2023-05-23T10:59:50;21.40;51.60
69054;DHT22;56125;52.242;4.756;2023-05-23T11:05:23;21.30;53.00
69054;DHT22;56125;52.242;4.756;2023-05-23T11:10:24;21.30;54.20
69054;DHT22;56125;52.242;4.756;2023-05-23T11:15:25;21.30;53.20
69054;DHT22;56125;52.242;4.756;2023-05-23T11:20:29;21.30;54.70
69054;DHT22;56125;52.242;4.756;2023-05-23T11:25:41;21.30;54.10
69054;DHT22;56125;52.242;4.756;2023-05-23T11:30:43;21.30;53.90
69054;DHT22;56125;52.242;4.756;2023-05-23T11:35:48;21.30;55.10
69054;DHT22;56125;52.242;4.756;2023-05-23T11:40:49;21.20;54.10
69054;DHT22;56125;52.242;4.756;2023-05-23T11:45:50;21.30;55.10
69054;DHT22;56125;52.242;4.756;2023-05-23T11:50:52;21.30;54.40
69054;DHT22;56125;52.242;4.756;2023-05-23T11:55:55;21.30;55.50
69054;DHT22;56125;52.242;4.756;2023-05-23T12:01:01;21.30;55.00
69054;DHT22;56125;52.242;4.756;2023-05-23T12:06:03;21.30;55.00
69054;DHT22;56125;52.242;4.756;2023-05-23T12:11:04;21.30;54.50
69054;DHT22;56125;52.242;4.756;2023-05-23T12:16:06;21.30;54.50
69054;DHT22;56125;52.242;4.756;2023-05-23T12:21:07;21.30;54.50
69054;DHT22;56125;52.242;4.756;2023-05-23T12:26:08;21.30;54.10
69054;DHT22;56125;52.242;4.756;2023-05-23T12:31:20;21.30;54.00
69054;DHT22;56125;52.242;4.756;2023-05-23T12:36:23;21.30;54.10
69054;DHT22;56125;52.242;4.756;2023-05-23T12:41:25;21.30;53.90
69054;DHT22;56125;52.242;4.756;2023-05-23T12:46:27;21.30;53.70
69054;DHT22;56125;52.242;4.756;2023-05-23T12:51:28;21.30;53.90
69054;DHT22;56125;52.242;4.756;2023-05-23T12:56:29;21.30;54.10
69054;DHT22;56125;52.242;4.756;2023-05-23T13:01:30;20.70;53.50
69054;DHT22;56125;52.242;4.756;2023-05-23T13:06:31;21.30;53.90
69054;DHT22;56125;52.242;4.756;2023-05-23T13:11:33;21.30;53.70
69054;DHT22;56125;52.242;4.756;2023-05-23T13:16:34;21.20;53.80
69054;DHT22;56125;52.242;4.756;2023-05-23T13:21:36;21.30;53.40
69054;DHT22;56125;52.242;4.756;2023-05-23T13:26:37;21.30;53.70
69054;DHT22;56125;52.242;4.756;2023-05-23T13:31:38;21.30;53.80
69054;DHT22;56125;52.242;4.756;2023-05-23T13:36:39;21.40;53.20
69054;DHT22;56125;52.242;4.756;2023-05-23T13:41:40;21.30;52.70
69054;DHT22;56125;52.242;4.756;2023-05-23T13:46:42;21.40;53.10
69054;DHT22;56125;52.242;4.756;2023-05-23T13:51:43;21.30;53.10
69054;DHT22;56125;52.242;4.756;2023-05-23T13:56:44;21.30;53.30
69054;DHT22;56125;52.242;4.756;2023-05-23T14:01:46;21.30;53.30
69054;DHT22;56125;52.242;4.756;2023-05-23T14:06:47;21.30;52.90
69054;DHT22;56125;52.242;4.756;2023-05-23T14:11:48;21.30;52.80
69054;DHT22;56125;52.242;4.756;2023-05-23T14:16:51;21.50;53.20
69054;DHT22;56125;52.242;4.756;2023-05-23T14:21:52;21.30;53.00
69054;DHT22;56125;52.242;4.756;2023-05-23T14:26:53;21.30;52.60
69054;DHT22;56125;52.242;4.756;2023-05-23T14:31:54;21.30;52.60
69054;DHT22;56125;52.242;4.756;2023-05-23T14:36:55;21.30;52.70
69054;DHT22;56125;52.242;4.756;2023-05-23T14:41:56;21.30;52.60
69054;DHT22;56125;52.242;4.756;2023-05-23T14:46:57;21.30;52.60
69054;DHT22;56125;52.242;4.756;2023-05-23T14:51:58;21.20;52.50
69054;DHT22;56125;52.242;4.756;2023-05-23T14:57:00;21.30;52.50
69054;DHT22;56125;52.242;4.756;2023-05-23T15:02:03;21.30;52.30
69054;DHT22;56125;52.242;4.756;2023-05-23T15:07:05;21.30;52.60
69054;DHT22;56125;52.242;4.756;2023-05-23T15:12:06;21.20;52.30
69054;DHT22;56125;52.242;4.756;2023-05-23T15:17:09;21.20;52.00
69054;DHT22;56125;52.242;4.756;2023-05-23T15:22:12;21.20;51.20
69054;DHT22;56125;52.242;4.756;2023-05-23T15:27:13;21.20;52.30
69054;DHT22;56125;52.242;4.756;2023-05-23T15:32:14;21.20;51.50
69054;DHT22;56125;52.242;4.756;2023-05-23T15:37:16;21.20;51.60
69054;DHT22;56125;52.242;4.756;2023-05-23T15:42:17;21.20;50.80
69054;DHT22;56125;52.242;4.756;2023-05-23T15:47:18;21.20;51.90
69054;DHT22;56125;52.242;4.756;2023-05-23T15:52:20;21.20;51.20
69054;DHT22;56125;52.242;4.756;2023-05-23T15:57:21;21.20;51.00
69054;DHT22;56125;52.242;4.756;2023-05-23T16:02:22;21.20;51.80
69054;DHT22;56125;52.242;4.756;2023-05-23T16:07:24;21.20;51.30
69054;DHT22;56125;52.242;4.756;2023-05-23T16:12:25;21.20;50.80
69054;DHT22;56125;52.242;4.756;2023-05-23T16:17:25;21.20;51.90
69054;DHT22;56125;52.242;4.756;2023-05-23T16:22:27;21.20;51.40
69054;DHT22;56125;52.242;4.756;2023-05-23T16:27:28;21.20;50.50
69054;DHT22;56125;52.242;4.756;2023-05-23T16:32:29;21.20;50.40
69054;DHT22;56125;52.242;4.756;2023-05-23T16:37:30;21.20;50.80
69054;DHT22;56125;52.242;4.756;2023-05-23T16:42:31;21.20;50.90
69054;DHT22;56125;52.242;4.756;2023-05-23T16:47:32;21.20;50.60
69054;DHT22;56125;52.242;4.756;2023-05-23T16:52:33;21.20;50.40
69054;DHT22;56125;52.242;4.756;2023-05-23T16:57:34;21.30;50.00
69054;DHT22;56125;52.242;4.756;2023-05-23T17:02:35;21.20;51.20
69054;DHT22;56125;52.242;4.756;2023-05-23T17:07:36;21.20;50.70
69054;DHT22;56125;52.242;4.756;2023-05-23T17:12:37;21.20;51.30
69054;DHT22;56125;52.242;4.756;2023-05-23T17:17:39;21.10;51.50
69054;DHT22;56125;52.242;4.756;2023-05-23T17:22:40;21.20;51.00
69054;DHT22;56125;52.242;4.756;2023-05-23T17:27:41;20.80;50.30
69054;DHT22;56125;52.242;4.756;2023-05-23T17:32:46;21.10;50.60
69054;DHT22;56125;52.242;4.756;2023-05-23T17:37:47;21.10;50.50
69054;DHT22;56125;52.242;4.756;2023-05-23T17:42:48;21.50;50.50
69054;DHT22;56125;52.242;4.756;2023-05-23T17:47:49;21.10;50.70
69054;DHT22;56125;52.242;4.756;2023-05-23T17:52:50;21.10;52.20
69054;DHT22;56125;52.242;4.756;2023-05-23T17:57:51;21.10;52.00
69054;DHT22;56125;52.242;4.756;2023-05-23T18:02:52;21.10;52.90
69054;DHT22;56125;52.242;4.756;2023-05-23T18:07:53;21.10;53.60
69054;DHT22;56125;52.242;4.756;2023-05-23T18:12:55;21.00;54.00
69054;DHT22;56125;52.242;4.756;2023-05-23T18:17:55;21.10;54.80
69054;DHT22;56125;52.242;4.756;2023-05-23T18:22:57;21.10;54.80
69054;DHT22;56125;52.242;4.756;2023-05-23T18:27:59;21.10;55.20
69054;DHT22;56125;52.242;4.756;2023-05-23T18:33:00;21.10;54.90
69054;DHT22;56125;52.242;4.756;2023-05-23T18:38:01;21.00;54.70
69054;DHT22;56125;52.242;4.756;2023-05-23T18:43:02;21.00;55.00
69054;DHT22;56125;52.242;4.756;2023-05-23T18:48:03;21.00;55.30
69054;DHT22;56125;52.242;4.756;2023-05-23T18:53:04;21.00;55.20
69054;DHT22;56125;52.242;4.756;2023-05-23T18:58:05;21.10;55.50
69054;DHT22;56125;52.242;4.756;2023-05-23T19:03:06;21.20;55.90
69054;DHT22;56125;52.242;4.756;2023-05-23T19:08:08;21.00;56.10
69054;DHT22;56125;52.242;4.756;2023-05-23T19:13:09;21.00;56.10
69054;DHT22;56125;52.242;4.756;2023-05-23T19:18:10;21.00;56.00
69054;DHT22;56125;52.242;4.756;2023-05-23T19:23:12;20.90;56.00
69054;DHT22;56125;52.242;4.756;2023-05-23T19:28:13;20.90;56.20
69054;DHT22;56125;52.242;4.756;2023-05-23T19:33:17;20.90;55.60
69054;DHT22;56125;52.242;4.756;2023-05-23T19:38:18;20.90;55.20
69054;DHT22;56125;52.242;4.756;2023-05-23T19:43:19;20.90;55.10
69054;DHT22;56125;52.242;4.756;2023-05-23T19:48:20;20.90;54.80
69054;DHT22;56125;52.242;4.756;2023-05-23T19:53:21;20.90;55.00
69054;DHT22;56125;52.242;4.756;2023-05-23T19:58:22;20.80;55.00
69054;DHT22;56125;52.242;4.756;2023-05-23T20:03:23;20.80;55.00
69054;DHT22;56125;52.242;4.756;2023-05-23T20:08:24;20.80;54.90
69054;DHT22;56125;52.242;4.756;2023-05-23T20:13:26;20.80;54.80
69054;DHT22;56125;52.242;4.756;2023-05-23T20:18:29;20.80;54.80
69054;DHT22;56125;52.242;4.756;2023-05-23T20:23:31;20.80;54.70
69054;DHT22;56125;52.242;4.756;2023-05-23T20:28:32;20.80;54.50
69054;DHT22;56125;52.242;4.756;2023-05-23T20:33:33;20.80;54.50
69054;DHT22;56125;52.242;4.756;2023-05-23T20:38:34;20.70;54.20
69054;DHT22;56125;52.242;4.756;2023-05-23T20:43:35;20.80;54.60
69054;DHT22;56125;52.242;4.756;2023-05-23T20:48:40;20.70;54.10
69054;DHT22;56125;52.242;4.756;2023-05-23T20:53:41;20.70;53.90
69054;DHT22;56125;52.242;4.756;2023-05-23T20:58:42;20.70;53.80
69054;DHT22;56125;52.242;4.756;2023-05-23T21:03:45;20.70;53.80
69054;DHT22;56125;52.242;4.756;2023-05-23T21:08:46;20.70;53.80
69054;DHT22;56125;52.242;4.756;2023-05-23T21:13:47;20.60;53.50
69054;DHT22;56125;52.242;4.756;2023-05-23T21:18:48;20.70;53.60
69054;DHT22;56125;52.242;4.756;2023-05-23T21:23:49;20.50;53.30
69054;DHT22;56125;52.242;4.756;2023-05-23T21:28:50;20.60;53.30
69054;DHT22;56125;52.242;4.756;2023-05-23T21:33:51;20.70;53.30
69054;DHT22;56125;52.242;4.756;2023-05-23T21:38:52;20.60;53.50
69054;DHT22;56125;52.242;4.756;2023-05-23T21:43:53;20.60;53.10
69054;DHT22;56125;52.242;4.756;2023-05-23T21:48:54;20.60;53.10
69054;DHT22;56125;52.242;4.756;2023-05-23T21:53:55;20.60;53.00
69054;DHT22;56125;52.242;4.756;2023-05-23T21:58:56;20.50;52.70
69054;DHT22;56125;52.242;4.756;2023-05-23T22:03:57;20.50;52.50
69054;DHT22;56125;52.242;4.756;2023-05-23T22:08:59;20.50;52.50
69054;DHT22;56125;52.242;4.756;2023-05-23T22:14:00;20.50;52.40
69054;DHT22;56125;52.242;4.756;2023-05-23T22:19:01;20.50;52.40
69054;DHT22;56125;52.242;4.756;2023-05-23T22:24:05;20.60;52.20
69054;DHT22;56125;52.242;4.756;2023-05-23T22:29:06;20.50;52.30
69054;DHT22;56125;52.242;4.756;2023-05-23T22:34:07;20.40;52.20
69054;DHT22;56125;52.242;4.756;2023-05-23T22:39:08;20.50;52.10
69054;DHT22;56125;52.242;4.756;2023-05-23T22:44:09;20.50;52.00
69054;DHT22;56125;52.242;4.756;2023-05-23T22:49:10;20.50;52.00
69054;DHT22;56125;52.242;4.756;2023-05-23T22:54:11;20.50;51.90
69054;DHT22;56125;52.242;4.756;2023-05-23T22:59:12;20.40;51.90
69054;DHT22;56125;52.242;4.756;2023-05-23T23:04:13;20.40;51.70
69054;DHT22;56125;52.242;4.756;2023-05-23T23:09:14;20.40;52.20
69054;DHT22;56125;52.242;4.756;2023-05-23T23:14:15;20.40;51.70
69054;DHT22;56125;52.242;4.756;2023-05-23T23:19:16;20.40;51.70
69054;DHT22;56125;52.242;4.756;2023-05-23T23:24:17;20.30;51.50
69054;DHT22;56125;52.242;4.756;2023-05-23T23:29:18;20.30;51.50
69054;DHT22;56125;52.242;4.756;2023-05-23T23:34:19;20.30;51.40
69054;DHT22;56125;52.242;4.756;2023-05-23T23:39:21;20.30;51.50
69054;DHT22;56125;52.242;4.756;2023-05-23T23:44:21;20.30;51.30
69054;DHT22;56125;52.242;4.756;2023-05-23T23:49:23;20.30;51.40
69054;DHT22;56125;52.242;4.756;2023-05-23T23:54:24;20.30;51.50
69054;DHT22;56125;52.242;4.756;2023-05-23T23:59:25;20.30;51.20
